createdAt,value
2018-09-11T00:01:46.272Z,49.88
2018-09-11T00:04:14.922Z,49.83
2018-09-11T00:06:43.526Z,50.15
2018-09-11T00:09:13.589Z,50.05
2018-09-11T00:11:43.062Z,50.25
2018-09-11T00:14:11.742Z,50.12
2018-09-11T00:16:40.355Z,50.47
2018-09-11T00:19:08.968Z,50.21
2018-09-11T00:21:37.573Z,50.00
2018-09-11T00:24:06.291Z,49.83
2018-09-11T00:26:34.877Z,50.09
2018-09-11T00:29:03.483Z,49.47
2018-09-11T00:31:32.105Z,50.35
2018-09-11T00:34:00.684Z,50.05
2018-09-11T00:36:29.282Z,50.57
2018-09-11T00:38:57.919Z,50.18
2018-09-11T00:41:26.546Z,50.20
2018-09-11T00:43:55.213Z,50.49
2018-09-11T00:46:23.941Z,50.31
2018-09-11T00:48:52.582Z,50.47
2018-09-11T00:51:21.212Z,49.81
2018-09-11T00:53:49.833Z,50.56
2018-09-11T00:56:18.454Z,50.67
2018-09-11T00:58:47.053Z,50.46
2018-09-11T01:01:15.633Z,50.69
2018-09-11T01:03:44.267Z,50.83
2018-09-11T01:06:13.482Z,50.54
2018-09-11T01:08:42.148Z,50.45
2018-09-11T01:11:10.935Z,50.29
2018-09-11T01:13:39.569Z,49.94
2018-09-11T01:16:09.501Z,50.22
2018-09-11T01:18:38.152Z,50.13
2018-09-11T01:21:06.802Z,50.05
2018-09-11T01:23:35.638Z,50.07
2018-09-11T01:26:04.265Z,50.53
2018-09-11T01:28:32.873Z,50.52
2018-09-11T01:31:01.571Z,50.91
2018-09-11T01:33:30.202Z,50.21
2018-09-11T01:35:58.850Z,50.21
2018-09-11T01:38:27.605Z,49.99
2018-09-11T01:40:56.222Z,50.76
2018-09-11T01:43:24.915Z,50.56
2018-09-11T01:45:53.530Z,50.79
2018-09-11T01:48:22.153Z,51.53
2018-09-11T01:50:50.743Z,51.47
2018-09-11T01:53:19.382Z,51.42
2018-09-11T01:55:48.037Z,51.21
2018-09-11T01:58:16.618Z,51.82
2018-09-11T02:00:45.209Z,51.96
2018-09-11T02:03:13.853Z,52.17
2018-09-11T02:05:42.441Z,52.14
2018-09-11T02:08:11.055Z,52.81
2018-09-11T02:10:39.638Z,53.24
2018-09-11T02:13:08.214Z,52.89
2018-09-11T02:15:36.882Z,53.06
2018-09-11T02:18:05.516Z,52.62
2018-09-11T02:20:34.201Z,52.92
2018-09-11T02:23:02.813Z,52.95
2018-09-11T02:25:31.453Z,53.20
2018-09-11T02:28:00.061Z,53.03
2018-09-11T02:30:28.652Z,53.40
2018-09-11T02:32:57.244Z,53.13
2018-09-11T02:35:25.834Z,53.39
2018-09-11T02:37:54.467Z,52.78
2018-09-11T02:40:23.057Z,53.32
2018-09-11T02:42:51.666Z,53.23
2018-09-11T02:45:22.996Z,52.79
2018-09-11T02:47:53.488Z,53.20
2018-09-11T02:50:22.097Z,53.10
2018-09-11T02:52:50.896Z,52.43
2018-09-11T02:55:19.582Z,52.76
2018-09-11T02:57:48.256Z,53.39
2018-09-11T03:00:16.882Z,53.09
2018-09-11T03:02:45.529Z,53.04
2018-09-11T03:05:14.155Z,53.08
2018-09-11T03:07:42.716Z,53.26
2018-09-11T03:10:11.331Z,53.27
2018-09-11T03:12:39.898Z,53.71
2018-09-11T03:15:08.529Z,53.68
2018-09-11T03:17:37.236Z,53.93
2018-09-11T03:20:05.954Z,53.43
2018-09-11T03:22:34.557Z,53.02
2018-09-11T03:25:03.151Z,53.36
2018-09-11T03:27:31.773Z,53.12
2018-09-11T03:30:00.360Z,53.84
2018-09-11T03:32:28.973Z,53.30
2018-09-11T03:34:57.620Z,53.39
2018-09-11T03:37:26.195Z,53.65
2018-09-11T03:39:55.844Z,53.26
2018-09-11T03:42:24.455Z,53.39
2018-09-11T03:44:53.158Z,53.40
2018-09-11T03:47:21.761Z,53.00
2018-09-11T03:49:50.378Z,52.63
2018-09-11T03:52:19.025Z,52.97
2018-09-11T03:54:47.647Z,53.29
2018-09-11T03:57:16.235Z,52.99
2018-09-11T03:59:44.838Z,52.60
2018-09-11T04:02:13.480Z,52.91
2018-09-11T04:04:42.083Z,53.46
2018-09-11T04:07:10.765Z,52.80
2018-09-11T04:09:39.358Z,52.98
2018-09-11T04:12:07.977Z,52.66
2018-09-11T04:17:10.567Z,53.07
2018-09-11T04:19:39.249Z,52.86
2018-09-11T04:22:07.885Z,52.99
2018-09-11T04:24:36.731Z,53.54
2018-09-11T04:27:05.333Z,52.65
2018-09-11T04:29:33.995Z,53.35
2018-09-11T04:32:02.605Z,53.33
2018-09-11T04:34:31.240Z,52.75
2018-09-11T04:36:59.846Z,53.10
2018-09-11T04:39:28.418Z,52.78
2018-09-11T04:41:57.041Z,52.97
2018-09-11T04:44:25.778Z,51.90
2018-09-11T04:46:54.390Z,52.18
2018-09-11T04:49:23.101Z,51.91
2018-09-11T04:51:51.702Z,51.96
2018-09-11T04:54:20.310Z,52.37
2018-09-11T04:56:48.914Z,51.75
2018-09-11T04:59:18.174Z,52.05
2018-09-11T05:01:46.850Z,51.86
2018-09-11T05:04:15.478Z,51.37
2018-09-11T05:06:44.161Z,51.49
2018-09-11T05:09:12.927Z,51.33
2018-09-11T05:11:41.643Z,51.20
2018-09-11T05:14:10.257Z,51.40
2018-09-11T05:16:38.891Z,51.25
2018-09-11T05:19:07.518Z,51.01
2018-09-11T05:21:36.084Z,50.95
2018-09-11T05:24:04.740Z,50.69
2018-09-11T05:26:33.331Z,50.30
2018-09-11T05:29:01.916Z,50.35
2018-09-11T05:31:30.518Z,49.96
2018-09-11T05:33:59.101Z,49.56
2018-09-11T05:36:27.720Z,49.63
2018-09-11T05:38:56.428Z,50.05
2018-09-11T05:41:24.970Z,49.25
2018-09-11T05:43:53.589Z,49.29
2018-09-11T05:46:22.224Z,49.47
2018-09-11T05:48:50.823Z,49.07
2018-09-11T05:51:19.531Z,49.07
2018-09-11T05:53:48.179Z,49.08
2018-09-11T05:56:19.589Z,48.89
2018-09-11T05:58:48.285Z,48.68
2018-09-11T06:01:16.896Z,48.37
2018-09-11T06:03:45.616Z,48.39
2018-09-11T06:06:14.256Z,47.93
2018-09-11T06:08:42.890Z,48.08
2018-09-11T06:11:11.510Z,47.96
2018-09-11T06:13:40.130Z,47.01
2018-09-11T06:16:08.829Z,47.43
2018-09-11T06:18:37.391Z,46.62
2018-09-11T06:21:06.001Z,46.80
2018-09-11T06:23:34.584Z,46.14
2018-09-11T06:26:03.172Z,46.58
2018-09-11T06:28:32.110Z,45.83
2018-09-11T06:31:00.737Z,45.37
2018-09-11T06:33:29.338Z,45.46
2018-09-11T06:35:58.027Z,45.22
2018-09-11T06:38:26.644Z,44.93
2018-09-11T06:40:55.339Z,44.60
2018-09-11T06:43:30.486Z,44.30
2018-09-11T06:45:59.311Z,44.61
2018-09-11T06:48:27.902Z,44.19
2018-09-11T06:50:56.541Z,44.07
2018-09-11T06:53:25.189Z,44.00
2018-09-11T06:55:53.895Z,43.67
2018-09-11T06:58:22.565Z,43.45
2018-09-11T07:00:51.801Z,43.96
2018-09-11T07:03:20.442Z,43.97
2018-09-11T07:05:49.128Z,43.64
2018-09-11T07:08:17.829Z,43.64
2018-09-11T07:10:46.878Z,43.72
2018-09-11T07:13:15.533Z,44.15
2018-09-11T07:15:44.158Z,43.69
2018-09-11T07:18:12.899Z,43.08
2018-09-11T07:20:41.992Z,43.28
2018-09-11T07:23:11.027Z,43.03
2018-09-11T07:25:39.673Z,42.88
2018-09-11T07:28:08.411Z,42.90
2018-09-11T07:30:37.147Z,42.74
2018-09-11T07:33:05.944Z,42.48
2018-09-11T07:35:34.649Z,41.88
2018-09-11T07:38:04.329Z,41.75
2018-09-11T07:40:33.028Z,41.69
2018-09-11T07:43:01.744Z,41.88
2018-09-11T07:45:31.085Z,42.18
2018-09-11T07:47:59.844Z,42.29
2018-09-11T07:50:28.609Z,41.96
2018-09-11T07:52:58.090Z,41.89
2018-09-11T07:55:26.755Z,41.66
2018-09-11T07:57:55.683Z,41.56
2018-09-11T08:00:24.346Z,41.17
2018-09-11T08:02:53.077Z,40.70
2018-09-11T08:05:21.781Z,41.08
2018-09-11T08:07:50.425Z,40.51
2018-09-11T08:10:19.121Z,40.72
2018-09-11T08:12:48.041Z,39.64
2018-09-11T08:15:16.728Z,40.33
2018-09-11T08:17:45.974Z,39.64
2018-09-11T08:20:14.728Z,39.71
2018-09-11T08:22:43.402Z,39.70
2018-09-11T08:25:12.090Z,40.22
2018-09-11T08:27:40.741Z,39.75
2018-09-11T08:30:09.455Z,39.39
2018-09-11T08:32:38.103Z,39.46
2018-09-11T08:35:06.796Z,39.67
2018-09-11T08:37:35.466Z,39.45
2018-09-11T08:40:04.258Z,39.14
2018-09-11T08:42:32.930Z,39.11
2018-09-11T08:45:01.659Z,39.27
2018-09-11T08:47:30.330Z,38.92
2018-09-11T08:49:58.980Z,38.59
2018-09-11T08:52:27.690Z,38.57
2018-09-11T08:54:56.474Z,38.51
2018-09-11T08:57:25.155Z,37.97
2018-09-11T08:59:53.918Z,37.50
2018-09-11T09:02:22.638Z,37.23
2018-09-11T09:04:51.270Z,36.90
2018-09-11T09:07:19.966Z,36.88
2018-09-11T09:09:48.591Z,36.43
2018-09-11T09:12:17.237Z,36.47
2018-09-11T09:14:50.946Z,36.43
2018-09-11T09:17:22.091Z,36.89
2018-09-11T09:19:50.783Z,36.59
2018-09-11T09:22:19.772Z,36.80
2018-09-11T09:24:50.604Z,36.05
2018-09-11T09:27:19.414Z,35.88
2018-09-11T09:29:48.074Z,35.66
2018-09-11T09:32:16.750Z,35.45
2018-09-11T09:34:45.611Z,35.48
2018-09-11T09:37:14.455Z,34.90
2018-09-11T09:39:43.145Z,35.17
2018-09-11T09:42:12.535Z,34.91
2018-09-11T09:44:41.197Z,35.54
2018-09-11T09:47:09.942Z,35.55
2018-09-11T09:49:38.634Z,35.47
2018-09-11T09:52:07.461Z,35.30
2018-09-11T09:54:36.279Z,35.72
2018-09-11T09:57:04.964Z,35.94
2018-09-11T09:59:33.664Z,35.83
2018-09-11T10:02:05.034Z,35.15
2018-09-11T10:04:34.276Z,34.99
2018-09-11T10:07:03.006Z,34.68
2018-09-11T10:09:31.830Z,34.60
2018-09-11T10:12:00.543Z,33.96
2018-09-11T10:14:29.198Z,34.23
2018-09-11T10:16:57.860Z,34.53
2018-09-11T10:19:26.561Z,34.47
2018-09-11T10:21:55.247Z,34.56
2018-09-11T10:24:23.950Z,34.99
2018-09-11T10:26:52.678Z,35.35
2018-09-11T10:29:21.423Z,35.12
2018-09-11T10:31:50.121Z,34.46
2018-09-11T10:34:18.896Z,34.39
2018-09-11T10:36:47.655Z,33.48
2018-09-11T10:39:16.437Z,33.86
2018-09-11T10:41:45.184Z,32.66
2018-09-11T10:44:13.958Z,33.71
2018-09-11T10:46:42.643Z,34.24
2018-09-11T10:49:11.363Z,33.99
2018-09-11T10:51:40.120Z,33.67
2018-09-11T10:54:08.889Z,33.74
2018-09-11T10:56:37.606Z,34.36
2018-09-11T10:59:06.416Z,34.70
2018-09-11T11:01:35.169Z,34.71
2018-09-11T11:04:03.982Z,34.60
2018-09-11T11:09:09.180Z,34.53
2018-09-11T11:11:38.032Z,34.89
2018-09-11T11:14:07.262Z,34.28
2018-09-11T11:16:35.951Z,33.94
2018-09-11T11:19:04.689Z,34.55
2018-09-11T11:21:33.351Z,34.24
2018-09-11T11:24:02.118Z,34.58
2018-09-11T11:26:30.797Z,34.03
2018-09-11T11:28:59.537Z,34.41
2018-09-11T11:31:28.239Z,34.24
2018-09-11T11:33:57.053Z,33.74
2018-09-11T11:36:26.079Z,32.57
2018-09-11T11:38:54.553Z,33.62
2018-09-11T11:41:23.283Z,33.22
2018-09-11T11:43:51.975Z,33.46
2018-09-11T11:46:20.764Z,32.67
2018-09-11T11:48:49.479Z,33.26
2018-09-11T11:51:18.281Z,32.94
2018-09-11T11:53:46.981Z,32.17
2018-09-11T11:56:15.874Z,31.48
2018-09-11T11:58:45.289Z,31.58
2018-09-11T12:01:14.115Z,31.70
2018-09-11T12:03:42.827Z,30.76
2018-09-11T12:06:12.241Z,31.70
2018-09-11T12:08:40.902Z,32.30
2018-09-11T12:11:09.608Z,32.21
2018-09-11T12:13:38.335Z,31.63
2018-09-11T12:16:07.200Z,31.18
2018-09-11T12:18:35.886Z,31.34
2018-09-11T12:21:04.650Z,31.22
2018-09-11T12:23:33.442Z,30.73
2018-09-11T12:26:02.267Z,30.49
2018-09-11T12:28:31.093Z,30.06
2018-09-11T12:30:59.815Z,31.01
2018-09-11T12:33:28.516Z,31.87
2018-09-11T12:35:57.214Z,31.88
2018-09-11T12:38:25.866Z,30.60
2018-09-11T12:40:55.294Z,31.28
2018-09-11T12:43:24.108Z,31.28
2018-09-11T12:45:52.906Z,30.80
2018-09-11T12:48:21.938Z,30.27
2018-09-11T12:50:50.311Z,29.37
2018-09-11T12:53:18.990Z,30.24
2018-09-11T12:55:47.735Z,30.76
2018-09-11T12:58:16.441Z,30.84
2018-09-11T13:00:45.122Z,31.17
2018-09-11T13:03:13.811Z,30.15
2018-09-11T13:05:42.525Z,29.96
2018-09-11T13:08:11.260Z,29.76
2018-09-11T13:10:39.931Z,29.35
2018-09-11T13:13:08.757Z,28.77
2018-09-11T13:15:37.510Z,28.48
2018-09-11T13:18:06.374Z,29.30
2018-09-11T13:20:35.373Z,29.80
2018-09-11T13:23:04.630Z,29.63
2018-09-11T13:25:33.387Z,30.25
2018-09-11T13:28:02.085Z,30.50
2018-09-11T13:30:30.805Z,30.81
2018-09-11T13:32:59.533Z,30.92
2018-09-11T13:35:28.275Z,31.27
2018-09-11T13:37:56.988Z,30.80
2018-09-11T13:40:25.717Z,30.48
2018-09-11T13:42:54.387Z,29.88
2018-09-11T13:45:23.134Z,30.46
2018-09-11T13:47:51.842Z,30.96
2018-09-11T13:50:20.555Z,30.59
2018-09-11T13:52:49.287Z,31.74
2018-09-11T13:55:18.028Z,32.69
2018-09-11T13:57:46.734Z,32.74
2018-09-11T14:00:15.494Z,32.36
2018-09-11T14:02:44.263Z,32.55
2018-09-11T14:05:12.896Z,33.39
2018-09-11T14:07:41.690Z,33.15
2018-09-11T14:10:10.449Z,33.81
2018-09-11T14:12:39.182Z,33.20
2018-09-11T14:15:08.278Z,33.51
2018-09-11T14:17:36.987Z,33.98
2018-09-11T14:20:06.162Z,32.96
2018-09-11T14:22:34.954Z,31.64
2018-09-11T14:25:03.774Z,32.45
2018-09-11T14:27:32.596Z,31.36
2018-09-11T14:30:01.256Z,31.48
2018-09-11T14:32:30.037Z,31.21
2018-09-11T14:35:05.324Z,31.88
2018-09-11T14:37:34.086Z,32.08
2018-09-11T14:40:02.798Z,32.03
2018-09-11T14:42:31.500Z,33.20
2018-09-11T14:45:00.199Z,33.45
2018-09-11T14:47:33.943Z,34.43
2018-09-11T14:50:02.667Z,34.67
2018-09-11T14:52:31.395Z,35.78
2018-09-11T14:55:00.089Z,35.90
2018-09-11T14:57:28.945Z,36.17
2018-09-11T14:59:57.659Z,36.54
2018-09-11T15:02:26.423Z,36.54
2018-09-11T15:04:55.575Z,37.13
2018-09-11T15:07:24.616Z,36.81
2018-09-11T15:09:53.303Z,37.11
2018-09-11T15:12:22.079Z,37.45
2018-09-11T15:14:50.819Z,36.96
2018-09-11T15:17:19.534Z,37.34
2018-09-11T15:19:48.363Z,37.37
2018-09-11T15:22:17.159Z,36.99
2018-09-11T15:24:45.810Z,37.17
2018-09-11T15:27:14.515Z,37.27
2018-09-11T15:29:43.241Z,36.79
2018-09-11T15:32:11.988Z,36.72
2018-09-11T15:34:40.666Z,37.02
2018-09-11T15:37:09.409Z,37.63
2018-09-11T15:39:38.240Z,37.85
2018-09-11T15:42:07.035Z,37.63
2018-09-11T15:44:35.770Z,37.56
2018-09-11T15:47:04.501Z,37.84
2018-09-11T15:49:33.153Z,37.17
2018-09-11T15:52:01.830Z,37.05
2018-09-11T15:54:37.302Z,36.77
2018-09-11T15:57:06.017Z,36.50
2018-09-11T15:59:34.698Z,36.20
2018-09-11T16:02:03.478Z,36.56
2018-09-11T16:04:32.204Z,37.75
2018-09-11T16:07:00.936Z,37.12
2018-09-11T16:09:29.692Z,37.44
2018-09-11T16:11:58.388Z,37.96
2018-09-11T16:14:27.117Z,38.25
2018-09-11T16:16:55.834Z,37.94
2018-09-11T16:19:24.561Z,38.07
2018-09-11T16:21:53.582Z,38.10
2018-09-11T16:24:22.284Z,38.53
2018-09-11T16:26:51.003Z,38.66
2018-09-11T16:29:19.730Z,38.67
2018-09-11T16:31:48.432Z,37.65
2018-09-11T16:34:17.159Z,38.09
2018-09-11T16:36:45.873Z,38.15
2018-09-11T16:39:14.565Z,38.70
2018-09-11T16:41:43.315Z,39.14
2018-09-11T16:44:11.995Z,40.06
2018-09-11T16:46:40.752Z,39.97
2018-09-11T16:49:09.770Z,40.59
2018-09-11T16:51:38.886Z,41.20
2018-09-11T16:54:07.929Z,41.48
2018-09-11T16:56:36.652Z,41.81
2018-09-11T16:59:05.379Z,42.22
2018-09-11T17:01:34.064Z,42.56
2018-09-11T17:04:02.771Z,42.72
2018-09-11T17:06:31.475Z,42.98
2018-09-11T17:09:00.217Z,42.86
2018-09-11T17:11:28.931Z,43.17
2018-09-11T17:13:57.639Z,43.37
2018-09-11T17:16:26.398Z,44.10
2018-09-11T17:18:55.077Z,43.80
2018-09-11T17:21:23.766Z,43.68
2018-09-11T17:23:52.448Z,44.00
2018-09-11T17:26:21.134Z,44.50
2018-09-11T17:28:49.951Z,43.95
2018-09-11T17:31:18.622Z,44.77
2018-09-11T17:33:48.290Z,44.77
2018-09-11T17:36:16.969Z,44.52
2018-09-11T17:38:45.620Z,44.47
2018-09-11T17:41:14.310Z,43.92
2018-09-11T17:43:42.989Z,43.89
2018-09-11T17:46:11.685Z,44.35
2018-09-11T17:48:40.455Z,43.98
2018-09-11T17:51:09.170Z,44.61
2018-09-11T17:53:37.810Z,44.26
2018-09-11T17:56:06.672Z,44.13
2018-09-11T17:58:35.422Z,44.46
2018-09-11T18:01:04.157Z,44.57
2018-09-11T18:03:32.801Z,44.58
2018-09-11T18:06:01.481Z,44.18
2018-09-11T18:08:30.323Z,44.33
2018-09-11T18:10:58.958Z,44.60
2018-09-11T18:13:27.622Z,45.24
2018-09-11T18:15:56.337Z,45.79
2018-09-11T18:18:25.022Z,45.64
2018-09-11T18:20:53.781Z,45.69
2018-09-11T18:23:22.575Z,45.57
2018-09-11T18:25:51.414Z,46.10
2018-09-11T18:28:20.059Z,45.84
2018-09-11T18:30:48.787Z,46.02
2018-09-11T18:33:17.464Z,46.03
2018-09-11T18:35:46.193Z,46.36
2018-09-11T18:38:14.839Z,46.37
2018-09-11T18:40:43.759Z,46.06
2018-09-11T18:43:12.397Z,46.27
2018-09-11T18:45:41.058Z,46.45
2018-09-11T18:48:09.764Z,46.86
2018-09-11T18:50:38.433Z,47.03
2018-09-11T18:53:07.129Z,46.69
2018-09-11T18:55:35.792Z,46.88
2018-09-11T18:58:04.526Z,46.93
2018-09-11T19:00:33.220Z,46.72
2018-09-11T19:03:02.848Z,47.39
2018-09-11T19:05:31.805Z,47.08
2018-09-11T19:08:01.118Z,47.49
2018-09-11T19:10:30.216Z,47.51
2018-09-11T19:12:58.946Z,47.77
2018-09-11T19:15:28.068Z,47.42
2018-09-11T19:17:57.368Z,47.53
2018-09-11T19:20:26.152Z,48.00
2018-09-11T19:22:54.978Z,48.32
2018-09-11T19:25:23.717Z,48.63
2018-09-11T19:27:52.493Z,48.72
2018-09-11T19:30:21.200Z,48.92
2018-09-11T19:32:49.975Z,48.92
2018-09-11T19:35:19.584Z,49.33
2018-09-11T19:37:48.269Z,49.44
2018-09-11T19:40:16.984Z,49.35
2018-09-11T19:42:45.768Z,49.20
2018-09-11T19:45:14.494Z,48.93
2018-09-11T19:47:43.218Z,49.58
2018-09-11T19:50:12.088Z,49.13
2018-09-11T19:52:40.804Z,49.71
2018-09-11T19:55:09.514Z,49.75
2018-09-11T19:57:38.345Z,50.06
2018-09-11T20:00:07.679Z,49.52
2018-09-11T20:02:36.468Z,49.40
2018-09-11T20:05:05.302Z,49.56
2018-09-11T20:07:34.070Z,49.88
2018-09-11T20:10:02.822Z,49.71
2018-09-11T20:12:31.568Z,49.96
2018-09-11T20:15:00.715Z,50.26
2018-09-11T20:17:29.431Z,51.05
2018-09-11T20:19:58.083Z,51.05
2018-09-11T20:22:26.789Z,51.03
2018-09-11T20:24:55.756Z,50.60
2018-09-11T20:27:24.965Z,50.64
2018-09-11T20:29:53.921Z,50.93
2018-09-11T20:32:23.245Z,50.93
2018-09-11T20:34:51.947Z,51.01
2018-09-11T20:37:20.589Z,51.27
2018-09-11T20:39:49.265Z,51.72
2018-09-11T20:42:17.903Z,51.18
2018-09-11T20:44:46.608Z,51.51
2018-09-11T20:47:15.267Z,51.16
2018-09-11T20:49:43.906Z,51.38
2018-09-11T20:52:12.578Z,51.50
2018-09-11T20:54:41.231Z,51.76
2018-09-11T20:57:09.989Z,51.55
2018-09-11T20:59:38.723Z,51.86
2018-09-11T21:02:07.347Z,51.63
2018-09-11T21:04:36.015Z,52.10
2018-09-11T21:07:04.769Z,52.11
2018-09-11T21:09:33.474Z,51.57
2018-09-11T21:12:02.136Z,52.25
2018-09-11T21:14:30.835Z,52.55
2018-09-11T21:16:59.553Z,52.30
2018-09-11T21:19:28.408Z,52.84
2018-09-11T21:21:57.110Z,53.34
2018-09-11T21:24:25.785Z,53.64
2018-09-11T21:26:54.470Z,54.27
2018-09-11T21:29:23.101Z,54.24
2018-09-11T21:31:51.732Z,55.56
2018-09-11T21:34:20.366Z,56.75
2018-09-11T21:36:49.098Z,57.15
2018-09-11T21:39:17.737Z,57.67
2018-09-11T21:41:46.348Z,58.68
2018-09-11T21:44:15.016Z,58.75
2018-09-11T21:46:43.689Z,59.27
2018-09-11T21:49:12.326Z,60.09
2018-09-11T21:51:40.990Z,60.17
2018-09-11T21:54:09.721Z,60.43
2018-09-11T21:56:38.414Z,60.95
2018-09-11T21:59:07.110Z,61.69
2018-09-11T22:01:41.550Z,61.85
2018-09-11T22:04:10.436Z,61.92
2018-09-11T22:06:39.090Z,62.59
2018-09-11T22:09:09.218Z,62.47
2018-09-11T22:11:37.947Z,62.47
2018-09-11T22:14:06.674Z,62.38
